createdAt,value
2022-12-24T00:00:29.614Z,0.70
2022-12-24T00:05:32.518Z,0.40
2022-12-24T00:10:35.326Z,0.43
2022-12-24T00:15:39.537Z,0.43
2022-12-24T00:20:42.449Z,0.50
2022-12-24T00:25:45.830Z,0.60
2022-12-24T00:30:50.139Z,0.50
2022-12-24T00:35:54.061Z,0.60
2022-12-24T00:41:00.367Z,0.50
2022-12-24T00:46:04.788Z,0.50
2022-12-24T00:51:07.619Z,0.40
2022-12-24T00:56:10.891Z,0.43
2022-12-24T01:01:15.503Z,0.47
2022-12-24T01:06:20.032Z,0.50
2022-12-24T01:11:22.904Z,0.50
2022-12-24T01:16:27.241Z,0.50
2022-12-24T01:21:30.181Z,0.50
2022-12-24T01:26:33.080Z,0.50
2022-12-24T01:31:37.291Z,0.60
2022-12-24T01:36:40.204Z,0.50
2022-12-24T01:42:00.475Z,0.38
2022-12-24T01:47:09.105Z,0.52
2022-12-24T01:52:15.839Z,0.45
2022-12-24T01:57:23.154Z,0.40
2022-12-24T02:02:29.808Z,0.50
2022-12-24T02:07:33.359Z,0.57
2022-12-24T02:12:38.067Z,0.45
2022-12-24T02:17:49.776Z,0.47
2022-12-24T02:23:10.658Z,1.40
2022-12-24T02:28:26.721Z,0.65
2022-12-24T02:33:36.599Z,0.30
2022-12-24T02:38:48.316Z,0.30
2022-12-24T02:43:54.143Z,0.30
2022-12-24T02:49:01.180Z,0.30
2022-12-24T02:54:04.127Z,0.30
2022-12-24T02:59:23.084Z,0.45
2022-12-24T03:04:42.670Z,0.38
2022-12-24T03:09:56.443Z,0.30
2022-12-24T03:15:00.409Z,0.40
2022-12-24T03:20:06.003Z,0.30
2022-12-24T03:25:09.519Z,0.45
2022-12-24T03:30:15.432Z,0.40
2022-12-24T03:35:19.980Z,0.40
2022-12-24T03:40:22.798Z,0.35
2022-12-24T03:45:25.894Z,0.45
2022-12-24T03:50:31.227Z,0.40
2022-12-24T03:55:34.088Z,0.40
2022-12-24T04:00:36.985Z,0.30
2022-12-24T04:05:41.148Z,0.47
2022-12-24T04:10:43.955Z,0.40
2022-12-24T04:15:46.758Z,0.40
2022-12-24T04:20:50.909Z,0.30
2022-12-24T04:25:53.756Z,0.25
2022-12-24T04:30:59.675Z,0.40
2022-12-24T04:36:06.608Z,0.30
2022-12-24T04:41:17.406Z,0.50
2022-12-24T04:46:27.402Z,0.45
2022-12-24T04:51:31.784Z,0.20
2022-12-24T04:56:34.839Z,0.57
2022-12-24T05:01:37.753Z,0.60
2022-12-24T05:06:42.042Z,0.50
2022-12-24T05:11:45.027Z,0.50
2022-12-24T05:16:47.873Z,0.40
2022-12-24T05:22:06.009Z,0.30
2022-12-24T05:27:08.865Z,0.30
2022-12-24T05:32:11.686Z,0.30
2022-12-24T05:37:15.900Z,0.38
2022-12-24T05:42:18.736Z,0.30
2022-12-24T05:47:21.579Z,0.40
2022-12-24T05:52:25.789Z,0.22
2022-12-24T05:57:28.649Z,0.40
2022-12-24T06:02:31.511Z,0.20
2022-12-24T06:07:35.891Z,0.30
2022-12-24T06:12:38.813Z,0.30
2022-12-24T06:17:41.772Z,0.52
2022-12-24T06:22:45.970Z,0.40
2022-12-24T06:27:48.803Z,0.40
2022-12-24T06:32:51.609Z,0.50
2022-12-24T06:37:55.789Z,1.02
2022-12-24T06:42:58.704Z,1.73
2022-12-24T06:48:02.073Z,2.22
2022-12-24T06:53:06.222Z,1.92
2022-12-24T06:58:09.020Z,1.38
2022-12-24T07:03:12.750Z,1.10
2022-12-24T07:08:16.892Z,1.60
2022-12-24T07:13:20.545Z,1.20
2022-12-24T07:18:23.365Z,0.82
2022-12-24T07:23:27.686Z,1.23
2022-12-24T07:28:31.044Z,0.90
2022-12-24T07:33:33.940Z,1.25
2022-12-24T07:38:39.326Z,1.05
2022-12-24T07:43:42.309Z,0.90
2022-12-24T07:48:45.131Z,0.95
2022-12-24T07:53:49.283Z,1.00
2022-12-24T07:58:52.890Z,1.30
2022-12-24T08:03:55.809Z,1.27
2022-12-24T08:09:00.012Z,1.30
2022-12-24T08:14:02.806Z,1.58
2022-12-24T08:19:05.643Z,1.42
2022-12-24T08:24:10.083Z,1.70
2022-12-24T08:29:12.942Z,1.45
2022-12-24T08:34:15.775Z,1.45
2022-12-24T08:39:20.175Z,1.40
2022-12-24T08:44:23.100Z,1.60
2022-12-24T08:49:25.923Z,1.33
2022-12-24T08:54:30.221Z,1.38
2022-12-24T08:59:33.061Z,1.10
2022-12-24T09:04:39.400Z,1.00
2022-12-24T09:09:43.664Z,1.10
2022-12-24T09:14:46.572Z,1.10
2022-12-24T09:19:49.429Z,1.00
2022-12-24T09:24:54.788Z,1.80
2022-12-24T09:29:57.603Z,1.23
2022-12-24T09:35:00.512Z,1.35
2022-12-24T09:40:05.114Z,0.75
2022-12-24T09:45:15.834Z,1.45
2022-12-24T09:50:36.747Z,2.38
2022-12-24T09:55:46.910Z,2.17
2022-12-24T10:00:50.665Z,36.35
2022-12-24T10:06:05.176Z,7.07
2022-12-24T10:11:17.816Z,4.63
2022-12-24T10:16:26.611Z,4.20
2022-12-24T10:21:39.031Z,3.38
2022-12-24T10:26:53.971Z,3.67
2022-12-24T10:32:02.149Z,4.00
2022-12-24T10:37:05.285Z,3.20
2022-12-24T10:42:10.377Z,2.67
2022-12-24T10:47:14.572Z,3.42
2022-12-24T10:52:21.075Z,3.03
2022-12-24T10:57:27.663Z,2.78
2022-12-24T11:02:33.842Z,2.58
2022-12-24T11:07:36.842Z,2.53
2022-12-24T11:13:05.770Z,2.20
2022-12-24T11:18:16.311Z,2.50
2022-12-24T11:23:19.376Z,2.50
2022-12-24T11:28:26.088Z,2.20
2022-12-24T11:33:29.891Z,1.90
2022-12-24T11:38:34.988Z,2.20
2022-12-24T11:43:51.027Z,1.92
2022-12-24T11:49:18.501Z,1.80
2022-12-24T11:54:29.028Z,1.58
2022-12-24T11:59:37.694Z,1.98
2022-12-24T12:04:43.495Z,2.10
2022-12-24T12:09:51.659Z,1.60
2022-12-24T12:15:00.665Z,1.30
2022-12-24T12:20:08.737Z,1.50
2022-12-24T12:25:19.856Z,1.40
2022-12-24T12:30:25.299Z,1.60
2022-12-24T12:35:32.936Z,1.38
2022-12-24T12:41:01.340Z,1.70
2022-12-24T12:46:15.528Z,1.70
2022-12-24T12:51:26.647Z,1.50
2022-12-24T12:56:33.045Z,1.80
2022-12-24T13:01:47.993Z,1.35
2022-12-24T13:07:11.204Z,1.40
2022-12-24T13:12:44.718Z,1.40
2022-12-24T13:18:09.046Z,2.55
2022-12-24T13:23:14.552Z,1.98
2022-12-24T13:28:33.685Z,1.80
2022-12-24T13:33:51.480Z,1.90
2022-12-24T13:38:56.997Z,1.25
2022-12-24T13:44:17.727Z,1.30
2022-12-24T13:49:27.034Z,1.50
2022-12-24T13:54:30.971Z,1.35
2022-12-24T13:59:38.945Z,1.73
2022-12-24T14:04:43.549Z,1.50
2022-12-24T14:09:50.330Z,1.30
2022-12-24T14:14:53.226Z,1.30
2022-12-24T14:20:00.094Z,1.48
2022-12-24T14:25:05.204Z,1.80
2022-12-24T14:30:16.985Z,1.80
2022-12-24T14:35:24.470Z,1.20
2022-12-24T14:40:29.963Z,1.50
2022-12-24T14:45:38.541Z,1.50
2022-12-24T14:50:52.705Z,1.48
2022-12-24T14:55:55.528Z,1.65
2022-12-24T15:01:00.551Z,1.40
2022-12-24T15:06:07.584Z,1.10
2022-12-24T15:11:15.355Z,1.40
2022-12-24T15:16:23.653Z,1.40
2022-12-24T15:21:31.376Z,1.38
2022-12-24T15:26:36.545Z,1.27
2022-12-24T15:31:39.500Z,1.38
2022-12-24T15:36:43.790Z,1.10
2022-12-24T15:42:00.951Z,1.17
2022-12-24T15:47:05.328Z,1.50
2022-12-24T15:52:11.498Z,1.10
2022-12-24T15:57:16.183Z,0.98
2022-12-24T16:02:41.226Z,1.13
2022-12-24T16:08:10.201Z,0.90
2022-12-24T16:13:17.318Z,1.10
2022-12-24T16:18:24.999Z,1.10
2022-12-24T16:23:35.250Z,1.23
2022-12-24T16:28:38.205Z,1.30
2022-12-24T16:33:41.035Z,2.38
2022-12-24T16:39:02.893Z,3.17
2022-12-24T16:44:05.796Z,7.60
2022-12-24T16:49:15.256Z,7.00
2022-12-24T16:54:19.457Z,6.75
2022-12-24T16:59:23.722Z,5.97
2022-12-24T17:04:26.535Z,5.75
2022-12-24T17:09:30.709Z,5.78
2022-12-24T17:14:33.731Z,80.50
2022-12-24T17:19:37.599Z,7.90
2022-12-24T17:24:42.025Z,36.28
2022-12-24T17:29:44.983Z,84.32
2022-12-24T17:34:47.873Z,65.50
2022-12-24T17:39:52.033Z,49.08
2022-12-24T17:44:54.940Z,43.72
2022-12-24T17:49:57.844Z,38.50
2022-12-24T17:55:02.055Z,35.38
2022-12-24T18:00:05.832Z,33.05
2022-12-24T18:05:09.279Z,30.42
2022-12-24T18:10:13.531Z,30.90
2022-12-24T18:15:19.668Z,30.52
2022-12-24T18:20:23.664Z,30.08
2022-12-24T18:25:27.912Z,24.58
2022-12-24T18:30:30.718Z,20.15
2022-12-24T18:35:33.561Z,23.67
2022-12-24T18:40:39.040Z,24.52
2022-12-24T18:45:42.037Z,24.25
2022-12-24T18:50:44.916Z,23.67
2022-12-24T18:55:49.136Z,24.40
2022-12-24T19:00:51.965Z,22.67
2022-12-24T19:05:54.763Z,21.58
2022-12-24T19:10:59.068Z,21.23
2022-12-24T19:16:02.174Z,21.13
2022-12-24T19:21:06.372Z,20.23
2022-12-24T19:26:11.319Z,18.85
2022-12-24T19:31:15.995Z,18.20
2022-12-24T19:36:20.779Z,20.80
2022-12-24T19:41:26.535Z,19.25
2022-12-24T19:46:31.753Z,18.80
2022-12-24T19:51:35.825Z,17.33
2022-12-24T19:56:40.968Z,16.85
2022-12-24T20:01:44.276Z,16.77
2022-12-24T20:06:47.383Z,16.17
2022-12-24T20:11:52.341Z,14.02
2022-12-24T20:16:55.253Z,15.43
2022-12-24T20:21:58.178Z,14.85
2022-12-24T20:27:02.325Z,13.57
2022-12-24T20:32:05.832Z,14.57
2022-12-24T20:37:08.909Z,13.63
2022-12-24T20:42:13.176Z,13.38
2022-12-24T20:47:16.083Z,12.85
2022-12-24T20:52:18.953Z,12.85
2022-12-24T20:57:26.754Z,12.30
2022-12-24T21:02:30.787Z,12.07
2022-12-24T21:07:33.703Z,12.35
2022-12-24T21:12:51.911Z,11.93
2022-12-24T21:17:55.034Z,12.10
2022-12-24T21:23:01.079Z,10.85
2022-12-24T21:28:06.012Z,11.23
2022-12-24T21:33:08.805Z,10.98
2022-12-24T21:38:11.663Z,10.38
2022-12-24T21:43:15.812Z,10.85
2022-12-24T21:48:32.562Z,10.32
2022-12-24T21:53:53.083Z,9.98
2022-12-24T21:58:57.215Z,10.10
2022-12-24T22:04:00.059Z,9.75
2022-12-24T22:09:21.668Z,9.32
2022-12-24T22:14:25.846Z,9.23
2022-12-24T22:19:29.178Z,9.80
2022-12-24T22:24:32.005Z,8.77
2022-12-24T22:29:36.209Z,8.98
2022-12-24T22:34:39.025Z,8.70
2022-12-24T22:39:41.831Z,8.50
2022-12-24T22:44:47.884Z,8.70
2022-12-24T22:49:50.672Z,7.68
2022-12-24T22:54:53.497Z,8.18
2022-12-24T22:59:57.696Z,7.20
2022-12-24T23:05:00.585Z,7.03
2022-12-24T23:10:03.769Z,7.57
2022-12-24T23:15:09.417Z,6.78
2022-12-24T23:20:12.633Z,6.65
2022-12-24T23:25:15.555Z,6.70
2022-12-24T23:30:19.978Z,6.47
2022-12-24T23:35:22.883Z,7.05
2022-12-24T23:40:26.020Z,6.68
2022-12-24T23:45:30.188Z,6.28
2022-12-24T23:50:32.993Z,6.20
2022-12-24T23:55:35.839Z,5.68
